Date,TemperatureHighF,TemperatureAvgF,TemperatureLowF,DewpointHighF,DewpointAvgF,DewpointLowF,HumidityHigh,HumidityAvg,HumidityLow,PressureMaxIn,PressureMinIn,WindSpeedMaxMPH,WindSpeedAvgMPH,GustSpeedMaxMPH,PrecipitationSumIn
2012-1-1,46.8,37.8,30.3,41.1,32.9,24.3,93,83,67,29.93,29.46,27,8,34,0.03
2012-1-2,31.2,27.2,20.6,25.6,18.3,7.7,82,69,54,30.13,29.80,22,9,23,0.03
2012-1-3,24.2,20.5,16.7,15.1,9.0,5.2,82,61,48,30.28,30.13,20,6,22,0.00
2012-1-4,36.6,27.9,20.2,26.4,18.0,11.0,78,66,55,30.18,29.84,14,5,17,0.00
2012-1-5,41.1,33.3,25.1,31.7,26.9,21.8,92,78,59,29.98,29.66,11,3,17,0.00
2012-1-6,54.7,43.2,35.9,37.8,34.3,30.7,82,71,50,29.68,29.62,13,5,17,0.00
2012-1-7,45.4,39.8,34.7,34.7,30.2,24.7,89,69,53,30.14,29.63,15,5,21,0.00
2012-1-8,39.9,31.6,23.6,26.6,22.6,20.0,89,70,46,30.34,30.14,7,1,8,0.00
2012-1-9,42.3,31.5,19.7,29.0,23.2,16.5,93,73,52,30.27,29.89,14,4,18,0.00
2012-1-10,47.7,37.6,27.5,33.2,29.2,24.7,89,73,51,30.01,29.86,12,2,12,0.00
2012-1-11,47.4,35.1,23.9,38.2,29.7,21.9,96,82,55,29.86,29.45,12,2,15,0.22
2012-1-12,39.6,37.2,22.5,39.3,36.1,18.1,99,96,82,29.45,29.26,19,4,24,0.24
2012-1-13,29.0,24.0,19.7,25.1,18.9,14.2,90,81,73,29.93,29.35,16,6,21,0.24
2012-1-14,24.4,22.0,19.9,18.8,17.0,12.0,86,81,71,30.23,29.93,6,1,9,0.00
2012-1-15,27.5,21.1,16.2,16.7,12.5,5.3,80,69,48,30.45,30.23,11,3,15,0.03
2012-1-16,42.9,33.5,21.0,42.1,27.6,15.2,97,79,65,30.32,29.76,23,5,23,0.07
2012-1-17,52.0,41.1,26.3,51.5,38.6,16.3,99,91,63,29.96,29.29,22,7,32,0.39
2012-1-18,27.2,23.4,19.5,18.3,12.9,9.2,74,64,53,30.25,29.96,16,5,24,0.39
2012-1-19,27.8,20.3,6.0,25.5,11.6,-2.4,91,69,51,30.14,29.73,28,8,28,0.00
2012-1-20,17.3,10.5,0.9,12.3,2.8,-4.8,86,72,53,30.30,30.10,8,1,10,0.00
2012-1-21,28.7,17.4,10.5,15.1,10.3,5.7,86,74,55,30.30,30.08,10,2,14,0.07
2012-1-22,35.2,25.5,10.7,34.7,22.5,7.0,98,88,81,30.27,29.82,14,4,15,0.07
2012-1-23,49.9,40.5,32.2,48.6,37.8,23.8,99,91,71,29.82,29.41,26,8,30,0.33
2012-1-24,34.0,32.1,30.0,25.8,24.4,22.0,78,73,69,30.31,29.79,16,7,18,0.33
2012-1-25,31.5,29.8,28.2,24.9,22.8,21.5,83,75,70,30.36,30.15,8,2,9,0.00
2012-1-26,35.8,32.8,29.4,33.1,30.2,24.9,97,90,83,30.17,29.50,10,3,10,0.25
2012-1-27,41.2,34.4,28.8,33.0,29.6,23.6,97,84,54,29.93,29.47,15,4,20,0.13
2012-1-28,36.5,31.9,27.5,32.5,24.7,16.1,95,76,46,30.03,29.70,25,8,27,0.07
2012-1-29,33.2,28.1,20.2,29.5,21.4,12.6,91,76,59,30.20,29.84,19,6,25,0.04
2012-1-30,33.8,24.6,12.3,31.2,19.1,8.4,91,80,66,30.23,29.91,15,2,18,0.02
2012-1-31,55.3,45.6,34.1,45.7,37.1,30.7,90,73,56,29.91,29.78,18,7,20,0.02
2012-2-1,48.9,43.8,38.9,46.1,36.5,31.3,92,76,62,30.08,29.78,12,4,16,0.02
2012-2-2,40.2,35.4,25.6,31.8,28.9,22.5,88,77,63,30.39,30.08,7,2,11,0.00
2012-2-3,39.8,31.4,21.9,34.8,26.9,19.7,95,84,72,30.48,30.38,10,2,11,0.00
2012-2-4,43.6,35.2,24.8,29.0,26.0,20.9,86,70,51,30.39,30.15,8,2,10,0.00
2012-2-5,47.1,31.7,20.5,30.1,24.0,18.0,93,75,46,30.23,30.13,7,1,9,0.00
2012-2-6,51.0,36.7,25.8,30.9,26.6,22.5,91,70,36,30.17,29.99,18,5,20,0.00
2012-2-7,36.5,32.7,25.8,29.8,25.2,13.4,82,74,59,30.35,30.10,15,4,18,0.00
2012-2-8,37.5,27.9,20.8,17.4,14.4,9.0,79,58,33,30.34,30.20,13,3,13,0.00
2012-2-9,40.3,29.6,21.4,23.6,19.3,15.4,85,67,39,30.21,30.09,14,5,19,0.00
2012-2-10,32.5,28.2,18.0,29.4,23.6,14.5,93,83,76,30.09,29.82,19,6,23,0.00
2012-2-11,19.1,14.6,9.9,14.3,6.4,-0.7,86,70,49,30.20,29.88,21,8,24,0.00
2012-2-12,32.9,23.7,17.0,15.8,12.4,7.8,75,62,45,30.19,30.10,16,7,22,0.00
2012-2-13,37.8,29.3,19.4,18.8,14.8,9.4,77,56,31,30.11,29.95,11,4,15,0.00
2012-2-14,34.0,31.2,28.2,29.5,26.8,17.8,93,84,60,30.01,29.84,11,3,14,0.08
2012-2-15,39.3,35.1,32.1,34.1,29.4,27.3,92,80,69,30.17,30.01,12,4,14,0.08
2012-2-16,43.9,37.7,30.9,40.6,34.8,26.1,98,89,71,30.04,29.88,13,3,17,0.04
2012-2-17,45.2,37.1,30.1,28.8,25.3,19.9,87,64,37,30.10,29.93,16,4,21,0.04
2012-2-18,39.1,33.5,23.6,30.3,22.5,15.1,80,64,49,30.20,29.89,18,6,25,0.00
2012-2-19,34.4,26.2,19.7,18.5,16.7,14.8,83,68,49,30.21,30.12,10,2,14,0.00
2012-2-20,38.8,26.6,15.4,24.1,18.9,12.2,90,74,50,30.37,30.13,10,2,14,0.00
2012-2-21,40.6,34.5,27.3,39.0,30.8,21.8,95,86,68,30.13,29.59,17,4,24,0.17
2012-2-22,41.2,36.3,33.4,34.1,31.3,27.6,92,82,59,29.66,29.39,14,4,17,0.01
2012-2-23,42.5,36.9,32.1,33.4,30.4,27.2,95,78,58,29.60,29.40,14,2,14,0.01
2012-2-24,35.2,33.1,31.5,34.4,30.3,24.5,97,90,74,29.71,29.22,20,5,25,0.33
2012-2-25,32.4,30.6,28.4,26.4,23.0,19.9,86,73,61,30.31,29.71,19,7,22,0.33
2012-2-26,37.8,30.5,21.0,26.2,21.5,16.5,86,70,53,30.41,30.11,16,4,19,0.04
2012-2-27,45.1,35.2,30.0,27.0,23.8,20.5,74,64,38,30.45,30.05,25,6,33,0.02
2012-2-28,41.6,32.4,20.5,27.2,23.3,17.0,90,70,53,30.50,30.14,11,2,15,0.02
2012-2-29,44.2,38.0,32.7,43.7,35.9,24.3,99,92,65,30.14,29.43,13,4,16,0.49
2012-3-1,43.1,38.5,35.2,36.0,32.7,31.0,93,80,65,29.86,29.52,14,5,16,0.02
2012-3-2,48.3,40.2,34.3,47.5,35.5,30.9,98,84,64,29.85,29.10,20,4,34,0.54
2012-3-3,38.6,34.3,29.4,31.4,25.3,21.2,77,69,62,29.70,29.21,27,11,32,0.54
2012-3-4,42.3,30.5,26.1,28.1,20.8,18.7,81,67,50,30.25,29.70,13,4,18,0.00
2012-3-5,32.4,26.0,21.6,21.4,15.4,7.8,84,65,41,30.40,29.88,14,4,18,0.00
2012-3-6,58.1,41.7,26.9,35.2,27.3,19.0,73,58,40,30.39,30.04,20,6,22,0.00
2012-3-7,66.0,56.5,47.7,46.0,37.2,29.3,59,48,40,30.10,29.87,29,11,32,0.00
2012-3-8,60.5,46.9,30.7,53.0,38.3,22.7,93,72,53,30.10,29.73,31,10,31,0.13
2012-3-9,37.8,32.1,24.7,26.4,17.9,9.1,83,57,35,30.52,30.07,21,7,28,0.13
2012-3-10,48.0,34.1,19.2,28.5,18.2,8.7,77,53,38,30.55,30.23,22,6,23,0.00
2012-3-11,66.1,48.8,33.4,33.1,29.2,26.0,75,50,26,30.31,30.16,13,4,19,0.00
2012-3-12,61.6,51.4,38.8,57.0,46.7,31.6,97,84,66,30.17,29.73,27,4,27,0.43
2012-3-13,66.9,55.8,44.5,53.5,40.3,22.1,95,63,22,30.07,29.80,16,5,21,0.01
2012-3-14,77.0,55.0,33.8,51.8,37.8,24.9,86,56,27,30.13,29.97,16,2,16,0.01
2012-3-15,77.0,64.1,57.0,64.1,56.3,50.8,89,76,60,30.00,29.88,14,4,15,0.10
2012-3-16,74.7,63.0,53.9,62.1,57.5,52.8,96,83,62,30.08,29.95,10,2,12,0.01
2012-3-17,77.4,62.5,50.4,59.5,54.6,49.6,99,79,46,30.14,30.04,11,2,15,0.01
2012-3-18,73.7,60.8,48.9,59.4,54.2,47.7,97,81,57,30.07,29.98,15,2,15,0.00
2012-3-19,77.6,63.0,52.8,61.9,56.6,52.3,99,82,56,30.07,29.99,13,2,13,0.01
2012-3-20,83.4,66.9,52.6,60.0,55.7,50.9,96,71,40,30.11,30.03,8,2,17,0.01
2012-3-21,84.7,67.1,52.8,60.0,54.2,51.1,96,68,34,30.15,30.04,11,1,14,0.00
2012-3-22,87.6,67.4,51.0,60.6,54.9,49.0,95,68,31,30.10,29.99,10,1,15,0.00
2012-3-23,74.7,63.3,55.1,58.4,55.0,52.5,92,76,51,30.04,29.84,10,2,11,0.27
2012-3-24,61.0,55.4,51.4,55.8,52.5,49.2,97,90,77,29.84,29.75,12,2,13,0.01
2012-3-25,72.0,59.5,50.8,53.5,47.0,26.5,96,67,31,30.01,29.81,13,4,19,0.01
2012-3-26,51.4,40.1,32.5,31.3,22.4,15.0,70,50,31,30.39,30.02,18,6,20,0.01
2012-3-27,52.6,39.4,25.0,36.4,24.9,12.0,79,57,41,30.39,29.84,15,4,16,0.00
2012-3-28,67.6,56.2,46.5,50.7,39.8,31.2,77,55,39,29.93,29.64,24,8,29,0.00
2012-3-29,46.2,41.4,35.8,31.8,29.8,28.0,73,63,56,30.13,29.93,14,4,15,0.00
2012-3-30,41.5,35.8,30.7,36.3,31.6,25.5,96,85,69,30.11,29.72,17,5,24,0.73
2012-3-31,43.9,39.1,35.0,33.9,32.2,30.5,92,77,64,29.98,29.87,12,2,12,0.73
2012-4-1,54.4,45.3,37.6,44.9,38.4,32.7,85,77,67,29.90,29.66,10,3,12,0.00
2012-4-2,55.9,44.5,34.4,37.7,33.7,30.4,92,68,39,30.04,29.82,12,3,13,0.00
2012-4-3,64.7,47.9,35.2,49.7,39.7,29.6,91,74,57,30.03,29.80,12,2,16,0.14
2012-4-4,60.7,50.9,39.5,46.2,32.9,20.6,88,55,23,29.91,29.82,17,4,20,0.14
2012-4-5,49.1,41.2,35.0,31.5,27.3,23.5,76,58,41,30.11,29.91,16,5,19,0.00
2012-4-6,59.8,44.3,27.5,29.2,24.3,17.8,83,49,21,30.27,30.12,13,2,13,0.00
2012-4-7,65.3,47.9,27.8,35.0,28.7,24.7,92,53,23,30.31,30.11,13,1,13,0.00
2012-4-8,61.5,53.1,43.3,43.4,31.2,18.3,76,47,19,30.10,29.97,23,8,27,0.00
2012-4-9,62.3,49.9,37.8,39.7,28.8,17.4,85,49,21,29.98,29.75,22,6,27,0.00
2012-4-10,44.5,40.4,36.2,32.2,27.2,22.4,72,59,42,29.98,29.80,20,7,20,0.00
2012-4-11,52.2,42.4,34.7,32.8,29.0,23.9,83,61,37,30.19,29.97,16,4,21,0.00
2012-4-12,59.3,44.5,28.2,36.7,29.7,24.3,95,61,28,30.23,30.11,10,2,14,0.00
2012-4-13,63.9,48.6,30.3,37.7,32.6,27.8,95,59,27,30.24,30.10,12,2,13,0.00
2012-4-14,62.4,53.2,41.1,55.8,46.9,35.2,89,79,68,30.11,29.85,13,3,17,0.04
2012-4-15,78.3,65.0,57.0,63.6,57.5,54.3,98,79,49,29.88,29.72,15,4,18,0.98
2012-4-16,70.3,63.1,47.3,60.6,49.6,35.7,88,62,45,30.07,29.59,28,9,38,0.05
2012-4-17,58.7,48.0,35.9,36.9,33.5,30.4,83,59,38,30.32,30.07,11,3,12,0.05
2012-4-18,61.5,48.2,32.7,41.4,35.7,28.8,90,64,42,30.31,29.97,13,2,15,0.00
2012-4-19,73.5,59.2,43.6,53.2,46.7,39.6,89,65,43,29.97,29.82,15,2,15,0.00
2012-4-20,74.2,54.4,38.6,52.0,45.2,36.2,92,74,42,29.84,29.60,17,4,20,0.43
2012-4-21,52.9,43.5,38.0,36.5,32.4,27.4,92,67,41,30.02,29.84,14,6,18,0.46
2012-4-22,52.0,43.7,34.4,32.5,27.0,20.4,81,54,30,30.00,29.90,32,7,32,0.00
2012-4-23,56.9,48.1,39.5,27.1,18.5,10.7,60,33,16,29.90,29.56,23,9,30,0.00
2012-4-24,61.3,50.3,40.3,30.7,21.5,14.5,50,33,19,29.66,29.48,31,9,32,0.00
2012-4-25,65.5,50.6,32.7,49.5,34.4,26.5,92,58,28,29.80,29.67,11,2,15,0.03
2012-4-26,57.5,50.5,39.8,49.8,41.4,24.0,91,73,44,30.02,29.59,17,5,22,0.01
2012-4-27,56.5,43.7,31.2,31.2,22.6,15.8,72,47,21,30.21,30.02,13,3,29,0.01
2012-4-28,46.4,42.3,37.5,37.4,29.0,23.7,75,60,43,30.23,30.15,12,3,13,0.00
2012-4-29,73.5,52.1,25.4,56.0,41.3,21.2,89,68,49,30.32,29.96,8,2,15,0.00
2012-4-30,70.8,61.0,50.2,45.6,39.7,32.5,74,48,26,30.08,29.89,5,2,14,0.00
2012-5-1,64.0,58.5,50.2,59.6,55.3,48.0,96,89,79,29.91,29.72,4,1,12,0.33
2012-5-2,73.5,60.8,45.2,55.6,49.1,42.2,95,68,42,29.78,29.71,7,2,18,0.00
2012-5-3,66.1,55.0,44.9,62.7,46.0,38.5,95,74,44,29.85,29.71,9,3,22,0.37
2012-5-4,79.4,67.5,60.4,65.8,62.4,55.5,98,85,60,29.96,29.85,15,2,17,0.01
2012-5-5,73.7,62.3,56.0,55.3,51.9,49.2,85,70,47,30.06,29.91,14,3,16,0.01
2012-5-6,71.5,60.7,50.2,52.0,40.5,31.7,82,51,26,30.08,29.94,11,2,13,0.00
2012-5-7,64.2,58.0,50.1,59.5,52.7,37.3,96,83,44,30.01,29.74,8,1,8,0.33
2012-5-8,73.7,62.8,52.5,59.6,51.5,43.1,96,70,41,29.78,29.71,12,3,15,0.33
2012-5-9,66.6,54.8,45.1,49.7,45.7,40.9,92,73,44,29.82,29.71,17,3,22,0.02
2012-5-10,66.0,54.2,41.9,47.3,35.5,26.9,90,54,24,29.96,29.80,16,3,20,0.02
2012-5-11,76.3,60.5,42.1,43.1,37.7,33.4,78,47,23,30.11,29.96,11,2,13,0.00
2012-5-12,73.3,61.8,47.6,59.0,49.8,41.0,90,66,44,30.17,30.10,12,2,12,0.00
2012-5-13,70.4,60.5,49.4,57.9,50.4,43.0,93,71,47,30.20,30.06,14,2,16,0.06
2012-5-14,78.6,62.6,46.7,54.6,45.9,35.1,96,60,24,30.07,29.94,8,1,14,0.06
2012-5-15,83.6,65.2,43.8,51.3,44.4,40.5,94,54,24,29.97,29.77,11,2,15,0.00
2012-5-16,67.3,59.8,50.7,55.3,40.8,29.6,87,53,28,30.08,29.79,17,4,21,0.01
2012-5-17,70.9,55.6,38.6,45.6,39.2,33.6,90,57,26,30.20,30.08,8,2,11,0.01
2012-5-18,76.7,60.0,42.2,49.9,40.3,26.9,95,56,16,30.14,30.03,7,1,10,0.00
2012-5-19,85.1,67.7,46.0,52.8,47.2,42.8,94,54,23,30.11,30.04,11,1,12,0.00
2012-5-20,87.4,71.6,52.0,57.2,51.3,47.5,93,54,27,30.11,29.95,13,2,14,0.00
2012-5-21,79.6,68.0,58.4,62.7,57.2,51.2,90,70,51,29.96,29.90,17,3,19,0.03
2012-5-22,72.8,62.1,54.1,55.0,50.3,47.9,85,66,45,29.96,29.86,11,3,14,0.03
2012-5-23,79.8,63.7,47.7,57.5,50.2,43.7,96,65,29,29.92,29.80,10,1,12,0.00
2012-5-24,84.5,71.1,53.8,63.2,57.7,48.4,93,65,44,29.89,29.72,16,3,19,0.00
2012-5-25,89.3,78.6,64.0,64.9,56.9,45.8,68,50,25,30.02,29.77,17,4,17,0.00
2012-5-26,74.2,66.4,59.8,61.1,54.8,49.0,94,67,51,30.27,30.04,8,1,19,0.50
2012-5-27,82.8,67.6,58.9,62.6,55.2,44.2,81,66,49,30.10,29.65,40,3,40,0.01
2012-5-28,94.0,75.7,52.2,68.1,56.8,42.2,96,57,27,29.89,29.65,19,4,28,0.02
2012-5-29,84.1,70.4,50.8,67.1,53.2,41.9,95,58,24,29.87,29.62,13,3,22,0.02
2012-5-30,75.3,62.5,46.4,51.8,46.9,42.4,93,59,32,29.97,29.73,14,3,20,0.00
2012-5-31,77.0,59.8,44.2,50.1,46.3,42.6,95,64,30,30.03,29.83,16,3,18,0.09
2012-6-1,82.2,59.1,48.8,58.1,50.4,44.0,98,79,27,30.03,29.48,14,4,18,0.02
2012-6-2,74.2,59.6,47.7,50.9,44.6,36.1,94,62,27,29.67,29.59,24,6,31,0.08
2012-6-3,80.7,68.5,59.3,52.6,48.3,41.6,75,52,26,29.74,29.64,24,6,28,0.01
2012-6-4,72.3,62.3,50.7,54.7,50.4,48.0,95,67,43,29.87,29.72,13,3,19,0.00
2012-6-5,69.6,61.2,52.9,51.9,47.9,44.3,89,64,42,29.97,29.86,13,4,20,0.00
2012-6-6,79.0,63.3,44.2,51.3,46.1,40.6,96,60,27,30.03,29.94,8,2,12,0.00
2012-6-7,82.8,68.2,49.5,54.1,48.7,43.1,94,55,27,30.03,29.95,12,2,15,0.00
2012-6-8,86.1,72.7,58.6,53.3,48.1,43.1,70,45,25,30.00,29.85,12,3,15,0.00
2012-6-9,90.3,76.3,60.4,56.2,52.2,49.0,75,46,26,29.90,29.81,14,3,16,0.00
2012-6-10,91.2,76.2,57.3,57.7,54.0,48.7,91,52,25,29.98,29.87,11,2,16,0.00
2012-6-11,75.8,71.4,65.5,69.8,64.3,55.3,90,79,51,29.93,29.79,7,1,12,0.05
2012-6-12,80.3,73.3,64.2,68.4,56.3,44.6,94,59,30,30.03,29.73,19,4,19,0.05
2012-6-13,75.8,62.6,48.5,49.1,43.4,39.5,79,52,28,30.17,30.03,15,3,19,0.00
2012-6-14,80.9,65.7,47.9,54.6,45.4,35.7,85,51,27,30.19,30.09,10,2,12,0.00
2012-6-15,87.2,72.1,54.4,61.9,53.0,41.3,89,56,21,30.13,30.07,13,1,13,0.00
2012-6-16,87.6,75.4,60.2,65.8,60.4,56.5,94,63,38,30.13,29.89,17,2,18,0.00
2012-6-17,80.9,74.9,63.4,70.0,64.7,55.7,93,71,56,29.89,29.74,9,1,13,0.15
2012-6-18,82.6,69.1,55.0,70.7,61.4,53.3,96,78,48,29.86,29.74,15,1,25,0.52
2012-6-19,95.1,83.5,72.3,69.2,66.0,63.6,83,57,36,29.95,29.82,11,3,15,0.52
2012-6-20,94.0,83.2,67.6,66.3,61.3,54.0,85,51,27,30.03,29.86,12,2,18,0.00
2012-6-21,93.8,79.7,68.1,70.4,63.6,60.3,84,60,37,29.90,29.72,18,4,28,0.00
2012-6-22,84.3,72.4,61.8,63.3,57.5,46.9,95,64,28,29.92,29.85,10,2,20,0.00
2012-6-23,84.0,70.4,55.4,60.4,55.0,47.5,96,62,29,30.00,29.92,8,1,12,0.00
2012-6-24,88.2,76.0,65.3,61.8,58.4,55.2,82,57,35,29.99,29.81,11,2,13,0.00
2012-6-25,75.1,68.1,58.4,60.7,48.3,38.8,78,52,28,29.98,29.85,16,5,23,0.00
2012-6-26,89.5,67.4,48.0,67.2,51.7,42.7,92,61,28,30.01,29.86,9,1,14,0.00
2012-6-27,90.7,74.1,53.6,53.9,48.5,43.3,86,47,20,29.97,29.74,12,2,16,0.00
2012-6-28,101.0,82.8,64.0,73.9,62.0,51.8,67,51,35,29.79,29.60,11,2,15,0.00
2012-6-29,92.9,81.3,69.1,72.3,62.6,52.5,89,57,27,29.79,29.67,11,2,13,0.00
2012-6-30,93.4,80.1,65.5,63.9,61.4,57.6,80,55,31,29.77,29.69,11,3,14,0.00
2012-7-1,93.6,78.7,62.3,66.0,61.3,57.1,92,58,33,29.91,29.77,10,2,17,0.00
2012-7-2,96.1,79.8,64.2,68.2,64.0,56.7,96,64,27,29.96,29.86,8,1,11,0.00
2012-7-3,85.3,75.9,70.8,75.9,69.7,66.6,94,82,62,29.89,29.74,12,1,24,0.40
2012-7-4,101.5,84.1,68.9,75.1,69.1,64.2,97,66,31,29.81,29.72,15,3,19,0.40
2012-7-5,87.2,79.3,68.3,72.9,69.1,62.1,95,72,55,29.93,29.75,24,2,36,1.06
2012-7-6,101.2,85.7,70.3,74.8,71.4,66.6,95,66,33,29.91,29.82,7,1,9,1.06
2012-7-7,98.5,86.7,76.3,76.3,72.2,63.6,89,64,43,29.90,29.79,1,0,2,0.00
2012-7-8,85.3,77.5,70.3,64.2,58.0,50.6,68,52,32,29.97,29.90,0,0,0,0.00
2012-7-9,84.9,73.1,59.9,63.1,59.5,55.8,93,64,44,30.01,29.92,0,0,0,0.00
2012-7-10,84.7,74.8,65.5,63.3,55.6,46.7,84,55,27,30.07,29.95,11,2,16,0.00
2012-7-11,86.1,72.6,56.3,58.1,51.8,46.2,92,53,27,30.12,30.05,0,0,0,0.00
2012-7-12,88.8,74.3,55.1,61.7,54.6,48.1,93,56,26,30.11,30.01,2,0,3,0.00
2012-7-13,90.7,78.4,64.2,67.4,61.6,54.3,92,61,30,30.08,30.00,11,2,15,0.00
2012-7-14,88.0,76.5,63.1,70.6,64.9,60.4,94,69,46,30.06,29.94,7,1,12,0.00
2012-7-15,94.3,82.6,73.2,71.1,66.8,58.5,88,62,32,29.99,29.86,11,2,17,0.00
2012-7-16,95.9,83.2,69.3,70.2,66.1,58.4,90,60,30,29.94,29.77,8,1,9,0.00
2012-7-17,101.7,87.8,75.1,70.7,65.9,60.4,81,52,27,29.78,29.67,17,3,18,0.00
2012-7-18,87.8,79.5,73.9,72.3,68.1,65.9,85,69,53,29.91,29.72,10,2,12,0.02
2012-7-19,78.1,71.7,65.6,69.5,65.5,61.0,94,82,64,29.92,29.85,12,3,16,0.08
2012-7-20,82.0,71.2,62.6,63.4,55.6,49.7,92,61,33,30.02,29.92,16,4,21,0.09
2012-7-21,90.7,73.4,55.1,62.5,55.8,50.0,95,59,27,30.06,29.94,9,1,10,0.00
2012-7-22,93.2,81.4,66.1,66.8,63.4,60.5,86,57,35,30.02,29.92,13,3,16,0.00
2012-7-23,98.0,77.7,74.4,70.0,61.1,64.7,83,53,35,29.97,29.73,19,4,22,0.01
2012-7-24,87.2,80.2,69.1,68.7,61.2,50.8,73,54,32,29.92,29.76,12,3,19,0.01
2012-7-25,90.7,75.4,54.7,72.6,57.9,49.8,90,57,35,29.93,29.56,11,2,15,0.00
2012-7-26,84.3,78.1,72.7,74.5,69.9,64.6,94,77,59,29.67,29.53,13,2,19,0.14
2012-7-27,83.4,70.9,66.1,68.4,66.3,62.6,96,86,57,29.85,29.66,9,1,22,1.08
2012-7-28,83.6,72.2,64.7,66.5,61.2,58.2,96,70,43,30.03,29.85,12,3,14,1.19
2012-7-29,86.7,72.2,56.9,61.5,56.4,50.3,96,63,29,30.06,29.95,7,1,10,0.00
2012-7-30,88.8,76.1,61.8,68.5,61.5,53.7,95,65,31,29.98,29.84,8,1,12,0.00
2012-7-31,87.4,76.6,66.0,68.7,64.4,60.5,92,68,44,29.88,29.76,11,2,16,0.03
2012-8-1,86.1,74.5,62.9,64.6,59.6,51.1,93,64,33,29.88,29.81,8,2,12,0.03
2012-8-2,91.8,76.3,59.2,66.4,60.2,55.9,92,62,32,29.87,29.77,8,1,10,0.02
2012-8-3,94.3,81.6,66.4,71.9,64.1,57.6,95,61,30,29.89,29.82,10,1,13,0.02
2012-8-4,90.5,78.4,67.1,75.2,68.6,63.5,94,74,51,29.92,29.75,14,2,16,0.13
2012-8-5,88.2,76.7,68.4,72.4,62.4,49.6,94,66,31,30.05,29.78,16,4,19,0.03
2012-8-6,84.7,70.2,52.5,59.9,52.3,44.6,95,58,27,30.12,29.96,7,1,11,0.03
2012-8-7,92.3,74.7,53.5,60.3,54.9,50.3,95,57,25,29.96,29.82,13,2,13,0.00
2012-8-8,88.0,42.6,69.3,65.2,30.0,52.3,75,24,32,29.91,29.86,9,2,14,0.00
2012-8-9,65.6,18.4,63.7,64.4,18.1,62.2,97,27,95,29.90,29.74,11,2,14,0.29
2012-8-10,73.0,24.5,64.2,64.4,21.7,59.0,98,27,67,29.74,29.58,13,2,15,0.29
2012-8-11,70.4,20.5,60.1,61.4,18.3,58.6,96,24,68,29.88,29.64,11,4,13,0.00
2012-8-12,80.3,39.2,59.6,59.9,29.9,54.4,95,29,42,29.95,29.88,10,2,12,0.00
2012-8-13,76.7,34.4,62.7,63.0,28.6,56.1,87,32,49,29.96,29.89,6,0,7,0.01
2012-8-14,78.5,36.4,62.9,64.7,31.1,54.0,98,37,46,29.90,29.81,8,1,12,0.01
2012-8-15,83.2,39.9,58.3,64.7,32.0,55.3,98,33,40,29.91,29.85,6,0,7,0.00
2012-8-16,81.1,38.5,63.5,65.3,32.1,60.7,97,33,51,29.90,29.68,15,2,16,0.00
2012-8-17,77.4,37.7,60.5,60.1,28.2,48.5,95,29,37,29.92,29.76,12,3,16,0.00
2012-8-18,77.9,36.3,49.2,51.6,22.3,36.6,96,21,25,29.98,29.88,7,1,9,0.00
2012-8-19,80.5,38.9,53.3,54.3,25.6,42.8,93,24,28,29.91,29.82,8,1,12,0.00
2012-8-20,77.4,37.7,56.5,57.9,26.9,44.4,96,26,31,29.93,29.86,7,1,12,0.00
2012-8-21,79.9,37.1,53.9,59.6,28.8,50.1,96,30,36,30.04,29.93,10,1,12,0.00
2012-8-22,84.5,49.0,52.2,59.7,33.7,44.4,98,32,25,30.09,30.00,10,1,13,0.00
2012-8-23,87.8,70.6,52.8,59.1,53.8,48.3,96,62,26,30.10,30.02,7,1,12,0.00
2012-8-24,90.5,73.7,57.0,65.0,58.4,52.1,97,65,28,30.08,29.98,10,1,12,0.00
2012-8-25,92.1,76.6,60.9,66.8,58.8,50.6,97,61,25,30.07,30.00,11,1,13,0.00
2012-8-26,89.0,75.9,61.8,67.1,62.2,59.6,96,66,38,30.08,29.95,12,2,16,0.00
2012-8-27,84.7,74.4,67.8,72.5,67.5,60.3,97,81,47,29.97,29.86,7,1,13,0.38
2012-8-28,79.8,70.3,61.2,61.0,56.9,52.8,93,65,41,30.05,29.93,13,2,20,0.38
2012-8-29,82.2,68.1,55.0,60.0,56.1,52.7,96,69,38,30.08,29.97,5,0,7,0.00
2012-8-30,86.5,70.0,53.6,61.4,56.1,52.2,98,66,32,30.06,29.94,9,1,12,0.00
2012-8-31,94.9,77.6,59.6,69.2,62.0,55.4,92,63,34,29.98,29.90,17,3,18,0.00
2012-9-1,86.5,76.9,69.3,66.8,57.3,51.8,77,52,34,30.05,29.96,9,1,10,0.00
2012-9-2,80.9,74.1,69.1,68.7,62.1,50.8,83,67,46,29.99,29.89,9,2,13,0.00
2012-9-3,90.1,76.7,64.7,70.8,65.2,58.2,88,69,48,29.92,29.80,9,2,10,0.00
2012-9-4,80.9,73.5,68.6,73.0,69.1,66.1,96,87,64,29.85,29.77,8,1,14,0.27
2012-9-5,79.9,71.4,63.4,71.4,66.6,62.2,98,86,66,29.84,29.71,11,1,11,0.05
2012-9-6,87.2,73.9,65.3,67.5,63.7,54.5,98,74,35,29.85,29.75,9,0,9,0.02
2012-9-7,82.6,70.4,57.6,65.5,59.8,54.6,95,71,40,29.86,29.61,11,1,16,0.08
2012-9-8,72.8,63.3,55.9,60.7,53.0,48.1,96,72,42,29.81,29.58,17,4,19,0.06
2012-9-9,73.2,59.8,48.3,53.1,47.2,39.0,96,67,33,30.05,29.80,10,2,16,0.06
2012-9-10,76.1,59.8,44.3,51.9,44.2,37.5,96,63,26,30.19,30.05,6,1,10,0.00
2012-9-11,81.4,63.9,46.1,54.7,49.9,44.6,97,66,33,30.19,30.09,11,1,16,0.00
2012-9-12,84.7,67.1,48.3,58.1,52.9,46.6,96,65,32,30.19,30.10,9,1,12,0.00
2012-9-13,85.3,69.9,56.0,61.0,55.6,47.8,96,66,29,30.20,30.11,12,2,14,0.00
2012-9-14,72.1,62.1,53.8,60.0,51.2,40.5,95,72,33,30.23,30.15,15,3,17,0.43
2012-9-15,73.7,60.0,46.4,49.7,45.1,40.3,90,61,30,30.29,30.13,12,1,12,0.43
2012-9-16,78.6,61.7,46.0,54.3,48.1,44.3,96,67,31,30.13,29.97,7,1,9,0.00
2012-9-17,77.6,62.9,47.1,61.3,52.4,45.7,97,72,41,29.98,29.67,8,1,11,0.03
2012-9-18,65.5,58.6,45.4,63.5,49.5,35.3,95,73,51,29.92,29.54,16,4,20,0.02
2012-9-19,68.1,53.1,35.8,43.9,36.6,32.1,95,59,27,30.08,29.92,11,2,13,0.02
2012-9-20,69.1,60.0,50.5,54.1,45.2,37.6,82,59,45,29.96,29.79,11,2,14,0.03
2012-9-21,72.1,56.4,44.1,51.2,42.8,33.9,95,67,26,29.89,29.75,11,2,18,0.14
2012-9-22,58.4,51.9,44.1,51.7,46.7,36.6,96,83,51,30.04,29.68,12,2,15,0.03
2012-9-23,58.1,49.3,40.3,46.6,40.1,34.3,96,73,42,30.18,30.04,16,3,16,0.01
2012-9-24,64.8,50.6,33.4,42.1,34.7,30.0,95,60,28,30.18,29.90,15,3,21,0.01
2012-9-25,69.4,58.1,46.1,56.6,45.4,35.1,93,64,47,29.93,29.82,9,1,14,0.00
2012-9-26,69.8,62.6,53.3,63.0,57.1,43.8,97,83,59,30.10,29.84,9,1,11,0.00
2012-9-27,67.6,55.3,45.8,45.1,42.7,39.6,88,66,40,30.19,30.10,13,2,15,0.00
2012-9-28,71.3,57.0,44.6,49.1,44.0,40.7,93,66,36,30.14,30.02,7,1,9,0.00
2012-9-29,73.0,56.7,41.9,50.6,42.1,36.0,96,64,27,30.05,29.88,9,1,9,0.00
2012-9-30,65.5,55.3,47.4,48.8,46.1,42.8,93,73,48,29.93,29.86,11,2,20,0.00
2012-10-1,68.1,53.5,38.6,51.5,43.3,36.8,97,72,41,29.92,29.82,7,1,9,0.00
2012-10-2,69.9,60.2,53.8,54.5,51.7,47.1,95,75,50,29.87,29.77,11,2,13,0.11
2012-10-3,66.9,62.0,58.6,60.2,55.6,52.7,96,80,66,30.03,29.85,7,1,12,0.01
2012-10-4,77.2,64.9,54.1,57.5,52.2,49.3,93,67,38,30.05,29.94,11,2,17,0.01
2012-10-5,65.3,54.5,44.6,59.0,47.4,41.6,93,78,58,30.02,29.92,11,3,14,0.23
2012-10-6,49.6,44.4,38.5,43.0,37.5,33.2,96,78,55,30.08,29.90,12,3,16,0.23
2012-10-7,48.6,43.6,38.2,39.4,36.5,33.1,88,76,56,30.12,30.06,7,1,8,0.02
2012-10-8,55.6,42.0,29.4,39.3,29.8,23.8,96,67,29,30.20,30.08,9,1,12,0.01
2012-10-9,62.4,46.9,29.5,38.3,33.7,27.2,94,64,36,30.11,29.81,14,2,18,0.01
2012-10-10,53.5,45.3,33.4,43.0,35.9,27.1,93,71,48,30.13,29.75,18,4,23,0.08
2012-10-11,62.3,45.7,28.1,40.4,30.6,25.4,92,61,28,30.17,29.99,17,3,24,0.08
2012-10-12,55.7,43.7,32.8,37.4,31.0,22.0,89,65,29,30.40,30.13,10,2,14,0.01
2012-10-13,60.1,42.3,28.2,59.2,39.5,26.1,97,90,78,30.37,29.88,6,1,8,0.81
2012-10-14,69.3,59.1,34.3,62.7,54.8,32.8,98,86,67,30.06,29.38,22,3,24,0.01
2012-10-15,63.1,49.1,37.5,52.5,41.3,35.9,97,76,45,30.07,29.42,17,4,26,0.01
2012-10-16,71.1,55.2,35.0,58.4,46.2,31.4,96,73,42,30.06,29.72,7,1,11,0.48
2012-10-17,74.6,62.2,50.4,61.3,53.4,43.7,96,76,35,29.97,29.51,13,2,16,0.06
2012-10-18,77.9,59.3,49.6,60.7,50.4,33.0,97,75,36,29.97,29.33,20,3,21,0.15
2012-10-19,77.7,57.6,43.9,57.4,46.3,36.1,95,68,43,30.10,29.50,13,4,24,0.05
2012-10-20,51.3,46.0,39.8,46.3,39.1,32.5,96,78,59,30.19,29.54,8,3,16,0.01
2012-10-21,63.5,52.1,41.8,44.0,36.9,31.0,88,58,42,30.18,30.01,11,4,22,0.00
2012-10-22,71.3,53.5,37.5,56.5,46.5,35.8,97,79,53,30.07,29.92,6,1,10,0.04
2012-10-23,71.5,62.6,57.5,61.6,58.5,55.2,96,87,69,29.96,29.86,7,1,8,0.48
2012-10-24,78.3,66.6,59.2,60.8,59.0,56.0,96,78,52,29.97,29.90,11,1,12,0.06
2012-10-25,77.9,65.4,50.2,58.5,53.7,49.1,97,70,42,29.94,29.79,16,4,20,0.00
2012-10-26,70.1,51.0,45.7,54.5,41.5,33.7,90,71,56,30.19,29.79,16,5,18,0.01
2012-10-27,54.8,46.1,39.8,38.1,33.5,30.1,78,62,40,30.18,30.09,16,5,17,0.01
2012-10-28,49.1,42.7,38.6,35.4,30.6,27.6,77,63,50,30.17,30.07,29,8,29,0.00
2012-10-29,43.2,41.9,39.1,33.5,30.4,26.4,73,64,54,30.07,29.67,25,10,25,0.00
2012-10-30,43.6,38.5,34.7,37.2,34.5,31.2,91,86,74,29.67,29.40,26,11,32,0.06
2012-10-31,42.8,39.4,36.8,38.8,35.5,33.2,91,86,80,29.63,29.46,18,8,19,0.02
2012-11-1,49.4,42.9,39.9,36.9,32.4,28.0,86,67,47,29.75,29.63,15,7,17,0.02
2012-11-2,41.9,40.2,37.6,31.1,28.6,25.5,72,63,53,30.04,29.75,17,6,21,0.00
2012-11-3,45.8,37.1,30.7,31.2,28.3,24.8,88,71,52,30.17,30.04,11,3,11,0.00
2012-11-4,40.8,34.0,26.7,27.6,25.3,21.8,87,71,56,30.19,30.14,9,1,11,0.00
2012-11-5,45.7,35.7,25.0,28.1,25.4,21.2,89,68,42,30.20,30.13,5,1,8,0.00
2012-11-6,43.2,34.8,28.4,30.6,26.7,23.6,87,73,54,30.14,29.96,8,1,9,0.00
2012-11-7,49.6,38.2,29.1,34.5,27.5,23.6,84,66,42,30.13,29.96,11,3,12,0.00
2012-11-8,50.4,35.4,23.0,32.5,27.2,20.2,93,74,47,30.21,30.11,7,0,10,0.00
2012-11-9,55.0,41.9,27.2,43.7,35.0,24.8,93,78,53,30.18,30.07,12,2,14,0.09
2012-11-10,62.4,52.7,45.4,48.9,46.1,43.5,95,79,59,30.11,29.98,8,2,12,0.09
2012-11-11,68.9,60.5,52.2,48.9,42.6,36.0,69,53,39,30.10,29.91,22,7,25,0.00
2012-11-12,61.2,45.6,33.8,53.6,38.1,22.3,95,76,39,30.22,29.83,20,7,22,0.13
2012-11-13,34.4,32.4,24.4,24.9,20.4,17.6,81,61,51,30.53,30.22,10,2,11,0.14
2012-11-14,42.1,30.4,19.2,28.3,22.8,16.2,91,75,53,30.59,30.42,6,1,9,0.00
2012-11-15,48.2,37.7,27.5,32.7,29.1,24.4,88,72,51,30.42,30.30,5,1,6,0.00
2012-11-16,54.5,36.2,23.2,36.0,28.3,21.0,94,75,43,30.49,30.34,6,0,8,0.00
2012-11-17,54.1,36.6,24.5,35.8,28.8,22.2,94,76,44,30.60,30.49,7,1,8,0.00
2012-11-18,55.0,41.0,29.1,44.4,34.7,17.1,98,81,44,30.54,29.97,10,2,21,0.00
2012-11-19,55.7,40.2,28.8,41.6,32.1,23.8,98,75,43,30.39,29.85,6,1,14,0.01
2012-11-20,58.6,45.3,30.4,45.4,38.6,17.0,93,79,48,30.26,30.04,5,0,9,0.05
2012-11-21,59.5,43.4,25.4,46.3,36.8,15.4,98,80,50,30.35,30.11,9,1,11,0.06
2012-11-22,60.9,43.0,24.4,46.0,36.1,17.9,98,78,53,30.30,29.87,18,4,19,0.00
2012-11-23,47.9,37.5,28.8,32.7,28.0,24.5,85,70,46,30.27,30.16,7,2,18,0.00
2012-11-24,46.4,38.7,35.2,37.2,34.0,30.9,95,84,64,30.24,30.11,7,4,18,0.00
2012-11-25,57.3,51.1,37.0,50.6,44.4,36.0,96,78,64,30.22,29.88,12,5,29,0.13
2012-11-26,56.9,50.9,44.8,54.5,49.4,43.7,98,95,89,30.09,29.88,6,2,13,0.02
2012-11-27,62.9,57.2,49.2,58.9,54.4,48.0,99,91,77,30.08,29.86,11,5,27,0.20
2012-11-28,50.4,41.4,28.7,47.9,33.8,18.0,91,74,58,30.34,29.92,8,4,18,0.04
2012-11-29,39.3,30.1,24.4,27.3,21.0,18.6,88,70,47,30.37,30.20,8,2,19,0.00
2012-11-30,39.8,36.5,33.4,35.8,30.0,26.1,91,78,59,30.19,29.91,5,1,15,0.02
2012-12-1,43.1,41.5,38.6,41.5,40.3,36.5,98,96,92,29.94,29.79,5,2,12,0.26
2012-12-2,56.9,41.6,33.8,54.6,37.8,26.9,97,86,72,30.15,29.86,8,3,18,0.02
2012-12-3,63.2,45.4,33.7,58.9,44.0,30.8,99,95,76,30.09,29.58,19,3,23,0.13
2012-12-4,63.2,44.4,25.3,55.5,37.6,18.8,92,77,64,30.06,29.61,17,5,22,0.04
2012-12-5,42.1,31.4,24.4,30.8,21.8,17.8,87,68,47,30.37,30.00,14,4,21,0.04
2012-12-6,43.1,31.4,19.1,30.4,24.1,16.4,93,76,49,30.36,29.95,11,2,14,0.00
2012-12-7,43.9,37.6,26.3,41.5,31.6,22.4,97,80,47,30.35,29.85,8,2,19,0.06
2012-12-8,49.6,37.2,29.7,40.8,33.4,27.2,98,87,49,30.22,29.79,12,3,15,0.26
2012-12-9,50.4,38.8,33.5,49.9,34.6,27.1,98,85,66,30.15,29.59,17,4,20,0.13
2012-12-10,52.3,41.0,32.2,50.3,36.4,21.9,98,84,65,29.84,29.54,16,4,18,0.13
2012-12-11,42.6,34.2,25.3,35.0,26.5,18.7,87,74,56,30.14,29.58,15,3,17,0.00
2012-12-12,43.3,34.5,24.5,35.9,27.2,21.2,95,76,49,30.35,29.70,11,3,16,0.02
2012-12-13,43.9,33.7,19.1,36.2,26.9,16.1,94,77,46,30.36,29.63,15,3,23,0.02
2012-12-14,50.2,36.5,26.3,44.7,30.9,22.2,97,81,48,30.22,29.13,12,4,28,0.83
2012-12-15,44.1,35.2,28.7,41.4,29.2,19.5,98,79,64,30.15,29.34,16,7,36,0.05
2012-12-16,52.3,39.0,18.9,50.3,34.4,15.7,98,84,58,30.06,29.54,12,3,25,0.01
2012-12-17,43.3,35.6,21.1,39.2,28.7,16.9,88,76,59,30.01,29.58,8,2,14,0.00
2012-12-18,44.1,33.8,23.2,33.1,27.6,20.4,92,79,53,30.20,29.59,11,3,17,0.02
2012-12-19,39.8,33.3,28.5,36.0,27.8,20.6,95,81,65,30.28,29.70,13,3,27,0.04
2012-12-20,45.8,34.7,25.4,45.0,31.7,22.4,97,89,73,30.07,29.11,21,8,32,0.83
2012-12-21,34.3,25.8,8.4,32.1,20.8,4.8,95,82,64,30.15,29.15,27,6,33,0.16
2012-12-22,35.6,28.7,18.8,25.5,21.7,16.1,92,75,57,30.17,29.79,25,5,26,0.01
2012-12-23,36.5,27.2,18.9,25.8,21.5,15.7,91,79,59,30.25,29.80,11,3,14,0.06
2012-12-24,33.4,25.6,16.5,27.5,20.5,12.4,92,81,73,30.28,29.78,12,4,19,0.00
2012-12-25,35.3,29.3,21.6,27.5,22.2,13.8,89,75,64,30.29,29.91,13,4,20,0.04
2012-12-26,30.4,23.5,7.7,26.4,16.6,3.4,94,76,46,30.25,29.81,27,6,32,0.04
2012-12-27,33.4,24.7,13.3,26.7,19.3,6.8,93,80,62,30.19,29.83,12,4,18,0.16
2012-12-28,30.7,23.3,8.4,24.9,18.0,4.8,89,80,67,30.18,29.94,10,3,23,0.03
2012-12-29,31.2,25.4,14.3,26.1,19.9,10.9,92,80,57,30.27,29.79,11,4,25,0.06
2012-12-30,34.3,27.1,16.5,30.9,22.1,12.2,93,82,68,30.28,29.91,12,5,18,0.01
2012-12-31,35.5,29.9,16.5,31.1,23.4,12.5,90,77,68,30.36,29.90,14,5,18,0.02
2013-1-1,34.4,25.2,11.4,24.7,16.4,5.1,87,70,46,30.36,30.00,14,5,25,0.02